createdAt,value
2019-06-15T00:02:22.555Z,20.50
2019-06-15T00:05:30.835Z,20.50
2019-06-15T00:08:39.308Z,20.50
2019-06-15T00:11:47.064Z,20.40
2019-06-15T00:14:54.744Z,20.40
2019-06-15T00:18:02.491Z,20.30
2019-06-15T00:21:10.476Z,20.30
2019-06-15T00:24:18.319Z,20.30
2019-06-15T00:27:26.082Z,20.10
2019-06-15T00:30:33.797Z,20.00
2019-06-15T00:33:42.091Z,19.80
2019-06-15T00:36:49.869Z,19.70
2019-06-15T00:39:57.715Z,19.70
2019-06-15T00:43:05.534Z,19.60
2019-06-15T00:46:13.292Z,19.70
2019-06-15T00:49:21.034Z,19.70
2019-06-15T00:52:28.782Z,19.70
2019-06-15T00:55:36.456Z,19.80
2019-06-15T00:58:44.519Z,19.80
2019-06-15T01:01:52.331Z,19.80
2019-06-15T01:05:00.135Z,19.90
2019-06-15T01:08:08.098Z,20.00
2019-06-15T01:11:19.684Z,20.10
2019-06-15T01:14:28.492Z,19.90
2019-06-15T01:17:36.580Z,19.90
2019-06-15T01:20:44.672Z,19.80
2019-06-15T01:23:52.426Z,19.70
2019-06-15T01:27:00.250Z,19.70
2019-06-15T01:30:08.766Z,19.60
2019-06-15T01:33:16.485Z,19.60
2019-06-15T01:36:24.305Z,19.50
2019-06-15T01:39:32.010Z,19.50
2019-06-15T01:42:39.848Z,19.50
2019-06-15T01:45:48.980Z,19.50
2019-06-15T01:48:57.040Z,19.50
2019-06-15T01:52:04.880Z,19.40
2019-06-15T01:55:20.854Z,19.40
2019-06-15T01:58:22.180Z,19.40
2019-06-15T02:01:30.216Z,19.30
2019-06-15T02:04:38.112Z,19.30
2019-06-15T02:07:45.961Z,19.20
2019-06-15T02:10:54.078Z,19.20
2019-06-15T02:14:01.875Z,19.10
2019-06-15T02:17:10.627Z,19.10
2019-06-15T02:20:18.854Z,19.00
2019-06-15T02:23:26.564Z,19.00
2019-06-15T02:26:35.465Z,19.00
2019-06-15T02:29:43.143Z,18.90
2019-06-15T02:32:51.174Z,18.90
2019-06-15T02:35:58.926Z,18.90
2019-06-15T02:39:08.048Z,18.80
2019-06-15T02:42:15.898Z,18.70
2019-06-15T02:45:24.402Z,18.70
2019-06-15T02:48:32.217Z,18.70
2019-06-15T02:51:40.144Z,18.70
2019-06-15T02:54:47.895Z,18.70
2019-06-15T02:57:55.723Z,18.70
2019-06-15T03:01:07.838Z,18.70
2019-06-15T03:04:15.509Z,18.70
2019-06-15T03:07:23.291Z,18.70
2019-06-15T03:10:31.303Z,18.70
2019-06-15T03:13:39.158Z,18.70
2019-06-15T03:16:47.071Z,18.60
2019-06-15T03:19:54.738Z,18.60
2019-06-15T03:23:02.503Z,18.50
2019-06-15T03:26:10.172Z,18.50
2019-06-15T03:29:17.928Z,18.50
2019-06-15T03:32:25.622Z,18.40
2019-06-15T03:35:33.429Z,18.40
2019-06-15T03:38:41.175Z,18.30
2019-06-15T03:41:48.924Z,18.30
2019-06-15T03:44:56.613Z,18.20
2019-06-15T03:48:04.570Z,18.20
2019-06-15T03:51:12.699Z,18.10
2019-06-15T03:54:20.459Z,18.10
2019-06-15T03:57:28.511Z,18.10
2019-06-15T04:01:10.063Z,18.10
2019-06-15T04:04:17.968Z,18.20
2019-06-15T04:07:25.669Z,18.20
2019-06-15T04:10:33.378Z,18.10
2019-06-15T04:13:41.303Z,18.10
2019-06-15T04:16:49.161Z,18.10
2019-06-15T04:19:56.859Z,18.00
2019-06-15T04:23:05.034Z,18.00
2019-06-15T04:26:12.899Z,18.10
2019-06-15T04:29:20.924Z,18.10
2019-06-15T04:32:28.603Z,18.20
2019-06-15T04:35:52.071Z,18.30
2019-06-15T04:38:59.848Z,18.40
2019-06-15T04:42:07.609Z,18.50
2019-06-15T04:45:15.454Z,18.60
2019-06-15T04:48:23.326Z,18.70
2019-06-15T04:51:31.042Z,18.70
2019-06-15T04:54:39.047Z,18.70
2019-06-15T04:57:46.728Z,18.70
2019-06-15T05:00:54.624Z,18.80
2019-06-15T05:04:02.451Z,18.80
2019-06-15T05:07:10.241Z,18.80
2019-06-15T05:10:18.174Z,18.90
2019-06-15T05:13:25.855Z,18.90
2019-06-15T05:16:33.685Z,18.90
2019-06-15T05:19:41.390Z,18.90
2019-06-15T05:22:49.174Z,18.80
2019-06-15T05:25:57.167Z,18.70
2019-06-15T05:29:05.524Z,18.70
2019-06-15T05:32:13.361Z,18.60
2019-06-15T05:35:23.576Z,18.70
2019-06-15T05:38:30.732Z,18.80
2019-06-15T05:41:39.494Z,19.00
2019-06-15T05:44:47.253Z,19.30
2019-06-15T05:47:54.942Z,19.70
2019-06-15T05:51:02.650Z,20.20
2019-06-15T05:54:10.407Z,20.70
2019-06-15T05:57:21.758Z,21.20
2019-06-15T06:00:27.689Z,21.50
2019-06-15T06:03:35.502Z,21.70
2019-06-15T06:06:44.453Z,22.00
2019-06-15T06:09:52.486Z,22.20
2019-06-15T06:13:00.209Z,22.60
2019-06-15T06:16:08.031Z,22.90
2019-06-15T06:19:16.167Z,23.10
2019-06-15T06:22:24.038Z,23.40
2019-06-15T06:25:32.089Z,23.60
2019-06-15T06:28:40.066Z,23.80
2019-06-15T06:31:48.890Z,23.90
2019-06-15T06:34:56.692Z,24.00
2019-06-15T06:38:04.549Z,24.20
2019-06-15T06:41:13.516Z,24.30
2019-06-15T06:44:23.059Z,24.50
2019-06-15T06:47:30.994Z,24.70
2019-06-15T06:50:44.895Z,24.90
2019-06-15T06:53:52.785Z,25.00
2019-06-15T06:57:00.949Z,25.20
2019-06-15T07:00:09.262Z,25.40
2019-06-15T07:03:17.722Z,25.50
2019-06-15T07:06:27.914Z,25.60
2019-06-15T07:09:36.003Z,25.80
2019-06-15T07:12:43.897Z,26.10
2019-06-15T07:15:51.896Z,26.70
2019-06-15T07:18:59.895Z,27.90
2019-06-15T07:22:07.899Z,28.30
2019-06-15T07:25:16.258Z,28.60
2019-06-15T07:28:24.021Z,29.70
2019-06-15T07:31:32.196Z,29.70
2019-06-15T07:34:39.905Z,30.60
2019-06-15T07:37:47.649Z,31.50
2019-06-15T07:40:55.428Z,32.10
2019-06-15T07:44:03.334Z,32.50
2019-06-15T07:47:11.105Z,32.80
2019-06-15T07:50:18.948Z,33.40
2019-06-15T07:53:26.708Z,32.70
2019-06-15T07:56:34.501Z,33.50
2019-06-15T07:59:42.279Z,34.60
2019-06-15T08:02:49.973Z,34.40
2019-06-15T08:05:57.752Z,34.70
2019-06-15T08:09:06.948Z,34.80
2019-06-15T08:12:14.809Z,34.10
2019-06-15T08:15:22.669Z,34.00
2019-06-15T08:18:30.461Z,34.70
2019-06-15T08:21:38.214Z,34.30
2019-06-15T08:24:47.039Z,34.10
2019-06-15T08:27:54.863Z,34.00
2019-06-15T08:31:02.664Z,34.70
2019-06-15T08:34:10.573Z,35.20
2019-06-15T08:37:19.219Z,35.80
2019-06-15T08:40:27.623Z,35.40
2019-06-15T08:43:35.516Z,35.20
2019-06-15T08:46:43.490Z,34.60
2019-06-15T08:49:53.833Z,34.50
2019-06-15T08:53:01.701Z,34.60
2019-06-15T08:56:09.447Z,34.40
2019-06-15T08:59:17.242Z,34.40
2019-06-15T09:02:27.253Z,34.30
2019-06-15T09:05:35.033Z,34.90
2019-06-15T09:08:42.690Z,36.30
2019-06-15T09:11:50.492Z,37.60
2019-06-15T09:14:58.339Z,37.90
2019-06-15T09:18:06.478Z,38.80
2019-06-15T09:21:19.887Z,38.10
2019-06-15T09:24:27.748Z,36.40
2019-06-15T09:27:35.694Z,34.50
2019-06-15T09:30:43.807Z,33.90
2019-06-15T09:33:51.562Z,34.30
2019-06-15T09:36:59.248Z,35.70
2019-06-15T09:40:09.011Z,36.60
2019-06-15T09:43:22.289Z,36.00
2019-06-15T09:46:30.723Z,35.00
2019-06-15T09:49:38.558Z,34.70
2019-06-15T09:52:46.288Z,35.20
2019-06-15T09:55:54.171Z,36.30
2019-06-15T09:59:02.222Z,37.40
2019-06-15T10:02:10.256Z,38.80
2019-06-15T10:05:18.783Z,40.20
2019-06-15T10:08:26.516Z,41.20
2019-06-15T10:11:34.520Z,40.50
2019-06-15T10:14:42.757Z,38.70
2019-06-15T10:17:50.611Z,38.70
2019-06-15T10:20:58.500Z,37.80
2019-06-15T10:24:06.320Z,37.80
2019-06-15T10:27:14.172Z,38.60
2019-06-15T10:30:22.117Z,38.70
2019-06-15T10:33:29.795Z,37.50
2019-06-15T10:36:37.455Z,36.30
2019-06-15T10:39:45.452Z,35.80
2019-06-15T10:42:53.390Z,34.60
2019-06-15T10:46:01.169Z,34.20
2019-06-15T10:49:09.293Z,34.00
2019-06-15T10:52:17.190Z,33.70
2019-06-15T10:55:24.977Z,34.30
2019-06-15T10:58:33.978Z,34.70
2019-06-15T11:01:41.954Z,35.50
2019-06-15T11:04:49.769Z,35.50
2019-06-15T11:07:57.611Z,36.70
2019-06-15T11:11:27.399Z,37.70
2019-06-15T11:14:35.519Z,37.60
2019-06-15T11:17:43.825Z,37.10
2019-06-15T11:20:51.584Z,36.40
2019-06-15T11:24:02.283Z,36.10
2019-06-15T11:27:10.183Z,35.60
2019-06-15T11:30:18.021Z,36.40
2019-06-15T11:33:28.990Z,36.30
2019-06-15T11:36:37.161Z,36.30
2019-06-15T11:39:45.279Z,35.80
2019-06-15T11:42:53.067Z,36.00
2019-06-15T11:46:01.231Z,37.80
2019-06-15T11:49:09.140Z,40.00
2019-06-15T11:52:16.985Z,41.40
2019-06-15T11:55:38.642Z,42.20
2019-06-15T11:58:35.229Z,41.40
2019-06-15T12:01:42.915Z,40.50
2019-06-15T12:04:58.506Z,40.00
2019-06-15T12:08:00.401Z,40.80
2019-06-15T12:11:08.562Z,41.30
2019-06-15T12:14:16.430Z,40.80
2019-06-15T12:17:24.677Z,42.10
2019-06-15T12:20:33.577Z,42.40
2019-06-15T12:23:41.791Z,41.20
2019-06-15T12:26:50.598Z,41.70
2019-06-15T12:29:58.471Z,42.30
2019-06-15T12:33:06.421Z,42.30
2019-06-15T12:36:19.416Z,40.50
2019-06-15T12:39:28.640Z,40.60
2019-06-15T12:42:38.800Z,38.80
2019-06-15T12:45:53.183Z,38.00
2019-06-15T12:53:39.976Z,37.90
2019-06-15T13:01:29.242Z,35.90
2019-06-15T13:04:50.428Z,35.40
2019-06-15T13:08:22.811Z,35.70
2019-06-15T13:11:44.435Z,37.00
2019-06-15T13:15:56.810Z,36.80
2019-06-15T13:19:27.741Z,38.40
2019-06-15T13:22:50.342Z,39.50
2019-06-15T13:25:58.879Z,40.60
2019-06-15T13:29:11.441Z,40.50
2019-06-15T13:32:29.756Z,40.90
2019-06-15T13:35:57.391Z,40.10
2019-06-15T13:39:07.682Z,37.70
2019-06-15T13:42:25.266Z,36.70
2019-06-15T13:45:59.693Z,35.40
2019-06-15T13:49:09.350Z,34.50
2019-06-15T13:52:38.922Z,33.90
2019-06-15T13:55:48.414Z,33.00
2019-06-15T13:58:56.762Z,32.30
2019-06-15T14:02:05.143Z,31.90
2019-06-15T14:05:13.466Z,31.20
2019-06-15T14:08:30.680Z,30.90
2019-06-15T14:11:59.335Z,31.00
2019-06-15T14:15:17.159Z,31.30
2019-06-15T14:18:28.266Z,31.00
2019-06-15T14:21:43.138Z,31.00
2019-06-15T14:24:59.207Z,31.30
2019-06-15T14:28:10.860Z,30.90
2019-06-15T14:31:19.388Z,30.50
2019-06-15T14:34:28.682Z,30.00
2019-06-15T14:37:37.030Z,30.00
2019-06-15T14:40:45.800Z,30.00
2019-06-15T14:44:04.415Z,29.70
2019-06-15T14:47:26.360Z,29.60
2019-06-15T14:50:37.384Z,29.80
2019-06-15T14:53:49.908Z,29.60
2019-06-15T14:56:56.640Z,29.90
2019-06-15T15:00:08.512Z,30.20
2019-06-15T15:03:17.152Z,30.60
2019-06-15T15:06:26.098Z,30.80
2019-06-15T15:09:34.030Z,30.80
2019-06-15T15:12:42.190Z,30.70
2019-06-15T15:15:53.085Z,30.20
2019-06-15T15:19:00.133Z,29.80
2019-06-15T15:22:09.098Z,29.60
2019-06-15T15:25:17.204Z,29.10
2019-06-15T15:28:25.317Z,28.80
2019-06-15T15:31:33.326Z,28.90
2019-06-15T15:34:41.386Z,29.00
2019-06-15T15:37:49.581Z,28.80
2019-06-15T15:40:57.999Z,28.30
2019-06-15T15:44:06.261Z,27.80
2019-06-15T15:47:16.218Z,27.70
2019-06-15T15:50:26.298Z,27.60
2019-06-15T15:53:33.970Z,27.70
2019-06-15T15:56:41.853Z,27.90
2019-06-15T15:59:49.768Z,27.80
2019-06-15T16:02:57.534Z,27.70
2019-06-15T16:06:05.871Z,27.80
2019-06-15T16:09:16.638Z,28.00
2019-06-15T16:12:23.350Z,28.10
2019-06-15T16:15:31.329Z,27.90
2019-06-15T16:18:39.587Z,27.70
2019-06-15T16:21:47.569Z,27.60
2019-06-15T16:24:56.480Z,27.50
2019-06-15T16:28:06.869Z,27.40
2019-06-15T16:31:17.776Z,27.40
2019-06-15T16:34:24.156Z,27.30
2019-06-15T16:37:32.195Z,27.30
2019-06-15T16:40:40.747Z,27.40
2019-06-15T16:43:48.790Z,27.50
2019-06-15T16:46:57.037Z,27.60
2019-06-15T16:50:06.914Z,27.80
2019-06-15T16:53:16.798Z,27.80
2019-06-15T16:56:26.774Z,27.90
2019-06-15T16:59:36.471Z,27.70
2019-06-15T17:02:46.845Z,27.60
2019-06-15T17:05:57.190Z,27.60
2019-06-15T17:09:06.065Z,27.50
2019-06-15T17:12:16.971Z,27.40
2019-06-15T17:15:26.346Z,27.20
2019-06-15T17:18:36.459Z,27.20
2019-06-15T17:21:46.568Z,27.10
2019-06-15T17:24:56.555Z,26.90
2019-06-15T17:28:06.885Z,26.80
2019-06-15T17:31:16.763Z,26.40
2019-06-15T17:34:27.539Z,26.30
2019-06-15T17:37:37.708Z,26.00
2019-06-15T17:40:46.301Z,25.80
2019-06-15T17:43:56.526Z,25.50
2019-06-15T17:47:07.077Z,25.20
2019-06-15T17:50:16.953Z,25.00
2019-06-15T17:53:26.238Z,24.90
2019-06-15T17:56:36.467Z,24.80
2019-06-15T17:59:43.851Z,24.80
2019-06-15T18:02:51.892Z,24.60
2019-06-15T18:06:00.686Z,24.40
2019-06-15T18:09:08.795Z,24.20
2019-06-15T18:12:17.237Z,24.10
2019-06-15T18:15:26.566Z,23.90
2019-06-15T18:18:37.124Z,23.80
2019-06-15T18:21:46.699Z,23.60
2019-06-15T18:24:56.693Z,23.40
2019-06-15T18:28:06.379Z,23.20
2019-06-15T18:31:16.343Z,23.10
2019-06-15T18:34:23.928Z,22.90
2019-06-15T18:37:32.083Z,22.70
2019-06-15T18:40:39.830Z,22.60
2019-06-15T18:43:47.809Z,22.40
2019-06-15T18:46:56.484Z,22.20
2019-06-15T18:50:07.591Z,22.20
2019-06-15T18:53:14.702Z,22.00
2019-06-15T18:56:22.575Z,21.90
2019-06-15T18:59:30.676Z,21.80
2019-06-15T19:02:38.930Z,21.70
2019-06-15T19:05:47.186Z,21.60
2019-06-15T19:08:57.458Z,21.50
2019-06-15T19:12:07.041Z,21.40
2019-06-15T19:15:16.796Z,21.40
2019-06-15T19:18:26.116Z,21.20
2019-06-15T19:21:34.788Z,21.10
2019-06-15T19:24:47.325Z,21.00
2019-06-15T19:27:52.940Z,20.80
2019-06-15T19:31:01.053Z,20.70
2019-06-15T19:34:09.041Z,20.60
2019-06-15T19:37:16.864Z,20.60
2019-06-15T19:40:26.753Z,20.50
2019-06-15T19:43:36.303Z,20.40
2019-06-15T19:46:47.455Z,20.40
2019-06-15T19:49:56.855Z,20.40
2019-06-15T19:53:06.742Z,20.40
2019-06-15T19:56:13.871Z,20.40
2019-06-15T19:59:21.804Z,20.30
2019-06-15T20:02:29.705Z,20.20
2019-06-15T20:05:37.648Z,20.30
2019-06-15T20:08:46.879Z,20.10
2019-06-15T20:11:56.025Z,20.10
2019-06-15T20:15:06.336Z,20.00
2019-06-15T20:18:14.547Z,20.00
2019-06-15T20:21:22.440Z,20.00
2019-06-15T20:24:30.629Z,20.00
2019-06-15T20:27:38.533Z,20.00
2019-06-15T20:30:47.321Z,20.00
2019-06-15T20:33:57.016Z,20.00
2019-06-15T20:37:05.130Z,19.90
2019-06-15T20:40:16.379Z,19.80
2019-06-15T20:43:27.082Z,19.80
2019-06-15T20:46:36.927Z,19.70
2019-06-15T20:49:46.295Z,19.70
2019-06-15T20:52:56.178Z,19.70
2019-06-15T20:56:06.444Z,19.50
2019-06-15T20:59:13.602Z,19.40
2019-06-15T21:02:21.544Z,19.40
2019-06-15T21:05:37.304Z,19.30
2019-06-15T21:08:39.366Z,19.10
2019-06-15T21:11:47.686Z,19.10
2019-06-15T21:14:56.194Z,19.00
2019-06-15T21:18:06.589Z,18.90
2019-06-15T21:21:15.973Z,18.80
2019-06-15T21:24:26.240Z,18.70
2019-06-15T21:27:36.762Z,18.70
2019-06-15T21:30:47.495Z,18.70
2019-06-15T21:33:56.316Z,18.70
2019-06-15T21:37:06.468Z,18.60
2019-06-15T21:40:16.012Z,18.60
2019-06-15T21:43:26.836Z,18.60
2019-06-15T21:46:36.146Z,18.60
2019-06-15T21:49:46.565Z,18.50
2019-06-15T21:52:56.455Z,18.30
2019-06-15T21:56:07.097Z,18.20
2019-06-15T21:59:16.432Z,18.10
2019-06-15T22:02:26.623Z,18.10
2019-06-15T22:05:36.823Z,18.10
2019-06-15T22:08:44.284Z,18.00
2019-06-15T22:11:52.096Z,17.90
2019-06-15T22:15:00.183Z,17.80
2019-06-15T22:18:08.311Z,17.70
2019-06-15T22:21:16.273Z,17.70
2019-06-15T22:24:26.638Z,17.60
2019-06-15T22:27:36.182Z,17.50
2019-06-15T22:30:45.996Z,17.50
2019-06-15T22:33:53.407Z,17.50
2019-06-15T22:37:01.556Z,17.50
2019-06-15T22:40:11.663Z,17.40
2019-06-15T22:43:21.537Z,17.50
2019-06-15T22:46:29.502Z,17.60
2019-06-15T22:49:37.446Z,17.70
2019-06-15T22:52:47.342Z,17.70
2019-06-15T22:55:57.021Z,17.70
2019-06-15T22:59:06.253Z,17.80
2019-06-15T23:02:16.622Z,17.80
2019-06-15T23:05:26.193Z,17.90
2019-06-15T23:08:36.159Z,17.90
2019-06-15T23:11:43.336Z,18.00
2019-06-15T23:14:51.197Z,18.10
2019-06-15T23:17:59.115Z,18.40
2019-06-15T23:21:07.132Z,18.60
2019-06-15T23:24:16.625Z,18.60
2019-06-15T23:27:25.444Z,18.60
2019-06-15T23:30:34.344Z,18.50
2019-06-15T23:33:43.179Z,18.40
2019-06-15T23:36:57.090Z,18.10
2019-06-15T23:40:22.583Z,17.60
2019-06-15T23:43:30.395Z,17.30
2019-06-15T23:46:38.373Z,16.60
2019-06-15T23:49:46.198Z,16.20
2019-06-15T23:52:54.244Z,16.10
2019-06-15T23:56:02.068Z,16.00
2019-06-15T23:59:09.918Z,16.00
